Time;durP1;ratioP1;P1;durP2;ratioP2;P2;SDS_P1;SDS_P2;PMS_P1;PMS_P2;Temp;Humidity;BMP_temperature;BMP_pressure;BME280_temperature;BME280_humidity;BME280_pressure;Samples;Min_cycle;Max_cycle;Signal;HPM_P1;HPM_P2
2023/03/17 00:00:09;;;;;;;;;14.50;13.00;24.60;34.60;;;;;;109626;1259;45876;-63
2023/03/17 00:02:58;;;;;;;;;16.67;15.67;24.50;34.60;;;;;;109687;1258;56384;-63
2023/03/17 00:05:29;;;;;;;;;14.67;13.00;24.50;34.70;;;;;;109541;1258;54347;-64
2023/03/17 00:08:01;;;;;;;;;14.00;13.00;24.60;35.00;;;;;;109559;1255;49343;-63
2023/03/17 00:10:27;;;;;;;;;18.00;14.00;24.60;35.10;;;;;;109768;1255;49521;-63
2023/03/17 00:12:54;;;;;;;;;17.00;14.00;24.60;35.10;;;;;;109668;1260;46498;-64
2023/03/17 00:15:21;;;;;;;;;13.00;12.00;24.60;35.00;;;;;;109589;1260;56762;-64
2023/03/17 00:17:48;;;;;;;;;16.33;15.00;24.70;35.20;;;;;;109767;1259;54173;-65
2023/03/17 00:20:22;;;;;;;;;16.00;14.75;24.70;35.20;;;;;;109707;1259;49258;-64
2023/03/17 00:22:49;;;;;;;;;17.00;13.00;24.80;35.30;;;;;;109629;1255;49260;-64
2023/03/17 00:25:22;;;;;;;;;14.67;13.33;24.90;35.50;;;;;;109606;1258;46080;-64
2023/03/17 00:27:49;;;;;;;;;16.00;14.00;24.90;35.40;;;;;;109745;1255;57533;-64
2023/03/17 00:30:15;;;;;;;;;18.00;15.00;25.00;35.60;;;;;;109789;1255;54380;-65
2023/03/17 00:32:44;;;;;;;;;17.00;16.00;25.10;35.60;;;;;;109846;1255;49005;-65
2023/03/17 00:35:16;;;;;;;;;17.00;16.00;25.20;35.80;;;;;;109629;1260;49592;-66
2023/03/17 00:37:42;;;;;;;;;18.00;14.50;25.20;35.60;;;;;;109801;1255;46802;-66
2023/03/17 00:40:15;;;;;;;;;15.00;14.00;25.30;35.60;;;;;;109735;1259;57514;-64
2023/03/17 00:42:42;;;;;;;;;19.50;16.50;25.40;35.60;;;;;;109867;1255;54256;-64
2023/03/17 00:45:09;;;;;;;;;17.00;15.00;25.50;35.60;;;;;;109677;1259;50296;-67
2023/03/17 00:47:36;;;;;;;;;15.50;14.50;25.50;35.00;;;;;;109850;1255;49502;-64
2023/03/17 00:50:03;;;;;;;;;15.00;14.00;25.60;35.70;;;;;;109582;1259;46293;-64
2023/03/17 00:52:30;;;;;;;;;15.00;14.00;25.60;35.50;;;;;;109742;1260;57404;-66
2023/03/17 00:54:56;;;;;;;;;18.00;16.00;25.70;35.60;;;;;;109615;1258;53693;-65
2023/03/17 00:57:23;;;;;;;;;14.00;13.00;25.70;35.50;;;;;;109660;1255;49216;-65
2023/03/17 00:59:50;;;;;;;;;14.00;13.00;25.80;35.60;;;;;;109612;1259;48962;-65
2023/03/17 01:02:17;;;;;;;;;16.00;15.00;25.80;35.60;;;;;;109702;1255;46899;-65
2023/03/17 01:04:44;;;;;;;;;15.50;14.50;25.80;35.50;;;;;;109590;1256;56775;-65
2023/03/17 01:07:12;;;;;;;;;15.00;14.00;25.90;35.50;;;;;;109761;1260;54183;-66
2023/03/17 01:09:40;;;;;;;;;16.00;15.00;25.90;35.40;;;;;;109585;1260;49980;-64
2023/03/17 01:12:11;;;;;;;;;16.00;15.00;25.90;35.40;;;;;;109609;1260;49755;-64
2023/03/17 01:14:37;;;;;;;;;19.50;16.00;25.90;35.40;;;;;;109786;1255;46835;-64
2023/03/17 01:17:11;;;;;;;;;17.50;15.00;25.90;35.30;;;;;;109615;1260;57126;-63
2023/03/17 01:19:37;;;;;;;;;17.00;14.00;25.90;35.20;;;;;;109640;1259;54989;-64
2023/03/17 01:22:03;;;;;;;;;14.00;13.00;25.90;35.20;;;;;;109589;1259;49275;-64
2023/03/17 01:24:30;;;;;;;;;16.50;13.00;25.90;34.80;;;;;;109563;1259;50848;-63
2023/03/17 01:26:56;;;;;;;;;16.00;14.50;25.90;35.20;;;;;;109685;1255;46663;-64
2023/03/17 01:29:23;;;;;;;;;19.00;16.00;25.90;35.30;;;;;;109627;1255;55985;-65
2023/03/17 01:31:49;;;;;;;;;17.00;11.00;25.90;35.30;;;;;;109645;1257;54275;-63
2023/03/17 01:34:15;;;;;;;;;17.00;16.00;25.80;35.20;;;;;;109624;1259;49336;-64
2023/03/17 01:36:42;;;;;;;;;18.00;15.00;25.80;35.00;;;;;;109727;1256;50455;-64
2023/03/17 01:39:08;;;;;;;;;15.00;14.00;25.80;35.00;;;;;;109697;1255;47180;-65
2023/03/17 01:41:35;;;;;;;;;17.00;16.00;25.80;35.10;;;;;;109665;1259;56785;-64
2023/03/17 01:44:02;;;;;;;;;19.00;17.00;25.70;35.00;;;;;;109740;1260;54476;-63
2023/03/17 01:46:31;;;;;;;;;15.00;13.00;25.70;34.90;;;;;;109839;1261;49474;-64
2023/03/17 01:49:29;;;;;;;;;16.00;15.00;25.70;35.00;;;;;;109662;1259;49732;-63
2023/03/17 01:51:56;;;;;;;;;16.00;15.00;25.70;35.00;;;;;;109676;1255;46919;-63
2023/03/17 01:54:49;;;;;;;;;19.50;14.00;25.60;35.10;;;;;;109720;1255;56949;-63
2023/03/17 01:57:21;;;;;;;;;16.00;14.00;25.60;34.80;;;;;;109605;1255;54461;-64
2023/03/17 02:00:10;;;;;;;;;17.00;16.00;25.60;34.70;;;;;;109574;1259;49569;-64
2023/03/17 02:02:40;;;;;;;;;14.00;13.00;25.50;34.50;;;;;;109657;1256;49130;-63
2023/03/17 02:05:11;;;;;;;;;15.00;13.50;25.50;34.50;;;;;;109643;1257;46838;-64
2023/03/17 02:07:37;;;;;;;;;16.00;14.50;25.50;34.40;;;;;;109739;1255;56538;-64
2023/03/17 02:10:05;;;;;;;;;15.00;14.00;25.50;34.30;;;;;;109894;1260;54531;-64
2023/03/17 02:12:33;;;;;;;;;15.67;12.67;25.40;34.10;;;;;;109826;1260;50264;-64
2023/03/17 02:14:59;;;;;;;;;18.00;14.00;25.30;34.00;;;;;;109591;1257;49604;-65
2023/03/17 02:17:27;;;;;;;;;14.00;13.00;25.30;33.90;;;;;;109599;1261;47128;-64
2023/03/17 02:19:55;;;;;;;;;13.00;12.00;25.20;33.80;;;;;;109678;1255;57024;-64
2023/03/17 02:22:21;;;;;;;;;17.00;14.00;25.20;33.80;;;;;;109750;1255;54482;-65
2023/03/17 02:24:54;;;;;;;;;14.00;13.00;25.10;33.70;;;;;;109595;1257;49286;-65
2023/03/17 02:27:27;;;;;;;;;17.50;15.00;25.10;33.70;;;;;;109386;1264;49675;-65
2023/03/17 02:29:53;;;;;;;;;13.00;12.00;25.00;33.60;;;;;;109609;1256;46290;-65
2023/03/17 02:32:20;;;;;;;;;12.67;11.67;25.00;33.70;;;;;;109629;1255;56907;-66
2023/03/17 02:34:47;;;;;;;;;16.00;15.00;24.90;33.80;;;;;;109653;1259;54248;-66
2023/03/17 02:37:15;;;;;;;;;16.00;15.00;24.90;33.70;;;;;;109749;1259;49441;-66
2023/03/17 02:39:41;;;;;;;;;14.00;13.00;24.80;33.90;;;;;;109764;1255;49798;-65
2023/03/17 02:42:08;;;;;;;;;17.00;15.00;24.70;33.80;;;;;;109636;1255;47251;-65
2023/03/17 02:44:34;;;;;;;;;14.00;13.00;24.60;33.70;;;;;;109618;1260;57473;-65
2023/03/17 02:47:02;;;;;;;;;17.00;16.00;24.60;33.80;;;;;;109591;1255;53494;-65
2023/03/17 02:49:29;;;;;;;;;15.00;12.50;24.60;34.00;;;;;;109738;1259;49482;-65
2023/03/17 02:51:56;;;;;;;;;14.50;13.00;24.60;34.10;;;;;;109738;1255;49675;-65
2023/03/17 02:54:22;;;;;;;;;16.00;14.00;24.60;34.30;;;;;;109653;1255;47619;-65
2023/03/17 02:56:49;;;;;;;;;15.00;14.00;24.60;34.30;;;;;;109623;1255;57170;-65
2023/03/17 02:59:16;;;;;;;;;17.00;14.00;24.70;34.40;;;;;;109584;1255;54341;-65
2023/03/17 03:01:42;;;;;;;;;15.50;14.50;24.70;34.60;;;;;;109641;1255;50009;-65
2023/03/17 03:04:09;;;;;;;;;17.00;14.50;24.80;34.90;;;;;;109576;1260;48935;-65
2023/03/17 03:06:36;;;;;;;;;17.00;14.00;24.90;34.70;;;;;;109594;1255;46536;-65
2023/03/17 03:09:02;;;;;;;;;15.00;11.00;24.90;34.90;;;;;;109610;1257;56857;-65
2023/03/17 03:11:29;;;;;;;;;16.00;14.00;25.00;34.70;;;;;;109635;1260;53661;-65
2023/03/17 03:13:55;;;;;;;;;16.00;15.00;25.10;34.70;;;;;;109589;1258;49923;-65
2023/03/17 03:16:21;;;;;;;;;16.00;15.00;25.20;34.70;;;;;;109667;1255;49623;-64
2023/03/17 03:18:47;;;;;;;;;13.50;12.50;25.20;34.60;;;;;;109699;1255;46615;-64
2023/03/17 03:21:14;;;;;;;;;16.00;15.00;25.30;34.60;;;;;;109675;1255;56289;-64
2023/03/17 03:23:42;;;;;;;;;17.00;15.50;25.30;34.60;;;;;;109564;1255;54313;-64
2023/03/17 03:26:08;;;;;;;;;13.00;12.00;25.40;34.50;;;;;;109635;1259;49596;-63
2023/03/17 03:28:35;;;;;;;;;14.00;13.00;25.50;34.50;;;;;;109811;1259;49887;-64
2023/03/17 03:31:01;;;;;;;;;12.00;11.00;25.50;34.50;;;;;;109733;1255;46643;-65
2023/03/17 03:33:27;;;;;;;;;15.00;14.50;25.60;34.50;;;;;;109582;1260;56764;-64
2023/03/17 03:35:54;;;;;;;;;13.00;12.00;25.70;34.40;;;;;;109637;1260;53314;-65
2023/03/17 03:38:20;;;;;;;;;14.00;13.00;25.80;34.40;;;;;;109601;1260;50017;-65
2023/03/17 03:40:47;;;;;;;;;15.00;14.00;25.80;34.30;;;;;;109649;1255;49749;-63
2023/03/17 03:43:13;;;;;;;;;19.00;16.00;25.80;34.20;;;;;;109834;1255;47544;-64
2023/03/17 03:45:40;;;;;;;;;15.00;14.00;25.90;34.30;;;;;;109795;1260;56196;-64
2023/03/17 03:48:06;;;;;;;;;14.00;13.00;25.90;34.30;;;;;;109666;1255;53875;-65
2023/03/17 03:50:32;;;;;;;;;14.00;12.00;25.90;34.20;;;;;;109615;1255;49123;-65
2023/03/17 03:52:58;;;;;;;;;15.00;14.00;25.90;34.10;;;;;;109598;1260;49620;-65
2023/03/17 03:55:25;;;;;;;;;17.00;14.50;26.00;34.20;;;;;;109587;1260;47435;-65
2023/03/17 03:57:51;;;;;;;;;19.50;16.00;26.00;34.30;;;;;;109596;1255;56944;-64
2023/03/17 04:00:18;;;;;;;;;16.00;14.00;26.00;34.30;;;;;;109753;1256;54286;-64
2023/03/17 04:02:45;;;;;;;;;17.00;16.00;26.00;34.30;;;;;;109613;1259;49835;-64
2023/03/17 04:05:17;;;;;;;;;15.00;14.00;26.00;34.30;;;;;;109656;1255;49413;-64
2023/03/17 04:07:43;;;;;;;;;14.00;13.00;26.00;34.20;;;;;;109653;1255;46597;-65
2023/03/17 04:10:11;;;;;;;;;14.00;12.67;26.00;34.20;;;;;;109576;1255;56495;-63
2023/03/17 04:12:38;;;;;;;;;15.00;13.00;25.90;34.10;;;;;;109847;1255;54048;-63
2023/03/17 04:15:06;;;;;;;;;17.00;14.33;26.00;34.20;;;;;;109610;1255;49879;-63
2023/03/17 04:17:32;;;;;;;;;14.00;13.00;25.90;34.20;;;;;;109604;1255;49525;-63
2023/03/17 04:19:58;;;;;;;;;14.00;13.00;25.90;34.40;;;;;;109585;1260;46235;-63
2023/03/17 04:22:25;;;;;;;;;14.00;13.00;25.90;34.30;;;;;;109634;1259;56322;-63
2023/03/17 04:24:51;;;;;;;;;14.50;12.00;25.80;34.20;;;;;;109814;1255;53897;-63
2023/03/17 04:27:18;;;;;;;;;15.00;13.00;25.80;34.20;;;;;;109632;1259;50182;-63
2023/03/17 04:29:44;;;;;;;;;14.00;13.00;25.70;33.90;;;;;;109583;1259;49599;-63
2023/03/17 04:32:12;;;;;;;;;14.50;13.50;25.70;33.70;;;;;;109655;1259;46781;-62
2023/03/17 04:34:39;;;;;;;;;14.00;13.00;25.60;33.60;;;;;;109654;1255;56495;-61
2023/03/17 04:37:06;;;;;;;;;14.00;13.00;25.60;33.60;;;;;;109615;1260;54245;-63
2023/03/17 04:39:33;;;;;;;;;16.00;12.50;25.50;33.40;;;;;;109577;1256;49961;-62
2023/03/17 04:41:59;;;;;;;;;15.00;13.50;25.50;33.80;;;;;;109659;1255;49329;-62
2023/03/17 04:44:25;;;;;;;;;14.00;11.00;25.50;33.30;;;;;;109676;1254;46770;-63
2023/03/17 04:46:52;;;;;;;;;15.00;14.00;25.40;33.10;;;;;;109708;1259;57436;-63
2023/03/17 04:49:18;;;;;;;;;16.00;15.00;25.40;33.10;;;;;;109615;1260;54030;-63
2023/03/17 04:51:44;;;;;;;;;15.00;13.00;25.30;32.90;;;;;;109686;1255;50381;-63
2023/03/17 04:54:11;;;;;;;;;13.33;12.33;25.20;32.90;;;;;;109712;1255;49062;-64
2023/03/17 04:56:38;;;;;;;;;14.00;13.00;25.20;32.70;;;;;;109771;1255;46043;-63
2023/03/17 04:59:04;;;;;;;;;16.00;14.00;25.20;32.90;;;;;;109738;1255;56406;-63
2023/03/17 05:01:31;;;;;;;;;13.00;12.00;25.10;32.80;;;;;;109711;1255;53439;-61
2023/03/17 05:03:57;;;;;;;;;14.00;13.00;25.00;32.60;;;;;;109611;1259;49129;-63
2023/03/17 05:06:23;;;;;;;;;14.00;12.00;25.00;32.60;;;;;;109960;1254;49467;-62
2023/03/17 05:08:50;;;;;;;;;14.00;13.00;24.90;32.40;;;;;;109773;1259;47239;-63
2023/03/17 05:11:17;;;;;;;;;12.00;11.00;24.90;32.30;;;;;;109698;1255;56447;-61
2023/03/17 05:13:44;;;;;;;;;14.00;12.00;24.80;32.20;;;;;;109624;1256;53871;-67
2023/03/17 05:16:10;;;;;;;;;14.50;13.00;24.70;32.20;;;;;;109723;1257;49700;-63
2023/03/17 05:18:37;;;;;;;;;17.00;14.33;24.70;32.10;;;;;;109616;1257;49729;-66
2023/03/17 05:21:06;;;;;;;;;13.00;12.00;24.60;32.20;;;;;;109722;1260;46785;-65
2023/03/17 05:23:34;;;;;;;;;16.67;15.67;24.60;32.20;;;;;;109575;1260;56466;-66
2023/03/17 05:26:00;;;;;;;;;14.00;11.50;24.60;32.20;;;;;;109579;1257;53805;-65
2023/03/17 05:28:26;;;;;;;;;19.00;16.00;24.50;32.60;;;;;;109667;1260;49229;-65
2023/03/17 05:30:53;;;;;;;;;58.00;38.50;24.40;35.80;;;;;;109699;1255;49559;-60
2023/03/17 05:33:20;;;;;;;;;68.50;45.00;24.40;39.80;;;;;;109642;1255;45996;-61
2023/03/17 05:35:46;;;;;;;;;59.00;40.00;24.30;39.20;;;;;;109705;1255;56281;-62
2023/03/17 05:38:14;;;;;;;;;59.00;40.00;24.20;39.40;;;;;;109726;1259;54339;-63
2023/03/17 05:40:42;;;;;;;;;62.00;41.00;24.20;39.50;;;;;;109796;1255;50436;-63
2023/03/17 05:43:08;;;;;;;;;56.00;39.50;24.10;40.00;;;;;;110141;1260;48822;-62
2023/03/17 05:45:35;;;;;;;;;55.50;37.00;24.10;39.90;;;;;;109644;1260;47620;-63
2023/03/17 05:48:02;;;;;;;;;;;24.10;40.40;;;;;;109748;1258;57135;-62
2023/03/17 05:50:28;;;;;;;;;55.67;38.00;24.00;40.10;;;;;;109687;1255;54371;-61
2023/03/17 05:52:54;;;;;;;;;48.00;32.00;23.90;39.40;;;;;;109625;1259;50038;-62
2023/03/17 05:55:21;;;;;;;;;54.50;38.50;23.80;39.20;;;;;;109562;1261;48951;-62
2023/03/17 05:57:47;;;;;;;;;50.50;36.00;23.80;39.10;;;;;;109564;1256;46373;-65
2023/03/17 06:00:15;;;;;;;;;54.50;38.00;23.70;38.90;;;;;;109845;1260;57603;-65
2023/03/17 06:02:41;;;;;;;;;55.00;40.00;23.70;38.60;;;;;;109799;1260;53811;-64
2023/03/17 06:05:08;;;;;;;;;55.00;39.00;23.60;38.50;;;;;;109932;1260;49722;-64
2023/03/17 06:07:35;;;;;;;;;53.00;38.00;23.50;38.20;;;;;;109605;1255;49946;-63
2023/03/17 06:10:02;;;;;;;;;54.00;35.00;23.50;38.20;;;;;;109599;1260;45904;-65
2023/03/17 06:12:29;;;;;;;;;47.00;34.50;23.40;37.90;;;;;;109717;1260;56377;-65
2023/03/17 06:14:55;;;;;;;;;52.00;36.00;23.30;37.70;;;;;;109692;1260;55318;-67
2023/03/17 06:17:21;;;;;;;;;50.00;35.00;23.20;37.50;;;;;;109658;1259;49219;-64
2023/03/17 06:19:47;;;;;;;;;50.50;33.50;23.20;37.60;;;;;;109667;1255;48966;-68
2023/03/17 06:22:13;;;;;;;;;45.00;36.00;23.10;37.60;;;;;;109669;1260;47443;-65
2023/03/17 06:24:40;;;;;;;;;51.00;32.50;23.00;37.30;;;;;;109627;1255;58044;-65
2023/03/17 06:27:06;;;;;;;;;44.00;30.00;23.00;37.50;;;;;;109628;1255;54802;-65
2023/03/17 06:29:32;;;;;;;;;;;22.90;37.40;;;;;;109714;1260;49856;-66
2023/03/17 06:31:59;;;;;;;;;54.00;34.00;22.90;37.40;;;;;;109713;1260;48080;-64
2023/03/17 06:34:26;;;;;;;;;52.00;30.00;22.80;37.50;;;;;;109664;1260;46546;-64
2023/03/17 06:36:52;;;;;;;;;43.50;32.00;22.80;37.50;;;;;;109795;1260;56811;-64
2023/03/17 06:39:19;;;;;;;;;49.00;33.00;22.80;37.00;;;;;;109688;1255;54112;-64
2023/03/17 06:41:45;;;;;;;;;41.00;31.50;22.70;37.40;;;;;;109674;1255;49838;-64
2023/03/17 06:44:11;;;;;;;;;49.33;33.33;22.70;37.80;;;;;;109581;1256;50024;-64
2023/03/17 06:46:38;;;;;;;;;45.00;32.00;22.70;37.50;;;;;;109698;1261;46535;-64
2023/03/17 06:49:04;;;;;;;;;47.00;33.00;22.70;37.50;;;;;;109586;1258;57169;-63
2023/03/17 06:51:31;;;;;;;;;39.00;27.00;22.70;37.50;;;;;;109606;1255;54648;-64
2023/03/17 06:53:57;;;;;;;;;47.50;31.00;22.70;37.40;;;;;;109597;1255;49669;-65
2023/03/17 06:56:24;;;;;;;;;39.00;32.00;22.70;37.50;;;;;;109692;1258;49130;-65
2023/03/17 06:58:51;;;;;;;;;35.00;28.00;22.70;37.10;;;;;;109717;1259;47096;-65
2023/03/17 07:01:17;;;;;;;;;45.50;32.00;22.70;37.00;;;;;;109880;1255;56611;-65
2023/03/17 07:03:44;;;;;;;;;50.00;30.00;22.70;37.00;;;;;;109650;1257;54091;-64
2023/03/17 07:06:10;;;;;;;;;37.00;29.00;22.70;37.00;;;;;;109061;1259;683344;-63
2023/03/17 07:08:36;;;;;;;;;38.50;29.00;22.70;36.70;;;;;;109788;1257;49875;-64
2023/03/17 07:11:03;;;;;;;;;43.67;28.67;22.70;36.60;;;;;;109791;1257;47482;-64
2023/03/17 07:13:34;;;;;;;;;39.00;31.00;22.70;36.50;;;;;;109730;1256;56586;-64
2023/03/17 07:16:04;;;;;;;;;35.00;29.00;22.80;36.50;;;;;;109667;1255;54043;-64
2023/03/17 07:18:33;;;;;;;;;39.50;28.50;22.80;36.30;;;;;;109585;1260;50082;-64
2023/03/17 07:21:00;;;;;;;;;;;22.80;36.20;;;;;;109633;1260;49773;-64
2023/03/17 07:23:28;;;;;;;;;43.50;31.50;22.80;36.30;;;;;;109757;1257;46612;-65
2023/03/17 07:25:56;;;;;;;;;35.33;28.00;22.90;36.30;;;;;;109819;1260;56990;-65
2023/03/17 07:28:23;;;;;;;;;38.00;27.50;23.00;36.00;;;;;;109702;1261;54157;-64
2023/03/17 07:30:50;;;;;;;;;45.00;30.00;23.00;36.00;;;;;;109825;1255;49875;-64
2023/03/17 07:33:21;;;;;;;;;37.00;25.00;23.00;35.90;;;;;;109808;1255;49563;-64
2023/03/17 07:35:48;;;;;;;;;39.00;23.00;23.00;35.80;;;;;;109798;1260;46869;-66
2023/03/17 07:38:16;;;;;;;;;38.50;28.50;23.10;35.70;;;;;;109670;1260;56995;-65
2023/03/17 07:40:46;;;;;;;;;35.00;26.00;23.10;35.70;;;;;;109592;1259;53503;-64
2023/03/17 07:43:14;;;;;;;;;34.00;29.00;23.10;35.70;;;;;;110058;1260;49864;-64
2023/03/17 07:45:40;;;;;;;;;32.00;26.00;23.20;35.80;;;;;;109838;1261;49894;-64
2023/03/17 07:48:07;;;;;;;;;30.00;25.33;23.20;36.00;;;;;;109536;1261;46547;-64
2023/03/17 07:50:34;;;;;;;;;34.00;30.00;23.30;35.70;;;;;;109598;1259;56937;-64
2023/03/17 07:53:01;;;;;;;;;39.00;25.00;23.30;35.50;;;;;;109653;1257;53621;-64
2023/03/17 07:55:29;;;;;;;;;34.00;27.00;23.30;35.60;;;;;;109616;1259;49134;-64
2023/03/17 07:57:56;;;;;;;;;29.50;23.50;23.40;35.40;;;;;;109610;1259;49123;-65
2023/03/17 08:00:22;;;;;;;;;24.00;20.00;23.40;35.30;;;;;;109591;1255;46072;-65
2023/03/17 08:02:50;;;;;;;;;28.75;23.25;23.50;35.30;;;;;;109613;1255;56980;-64
2023/03/17 08:05:17;;;;;;;;;29.00;21.00;23.50;35.30;;;;;;109596;1259;53891;-64
2023/03/17 08:07:43;;;;;;;;;30.00;20.00;23.50;35.40;;;;;;109595;1255;49800;-65
2023/03/17 08:10:12;;;;;;;;;31.00;25.00;23.60;35.90;;;;;;109708;1257;49656;-65
2023/03/17 08:12:39;;;;;;;;;28.00;21.67;23.60;35.30;;;;;;109813;1255;47334;-64
2023/03/17 08:15:08;;;;;;;;;29.00;25.00;23.70;35.30;;;;;;109701;1260;57627;-64
2023/03/17 08:17:35;;;;;;;;;22.50;20.00;23.70;35.20;;;;;;109644;1255;54014;-65
2023/03/17 08:20:03;;;;;;;;;28.00;22.00;23.80;35.10;;;;;;109635;1260;50002;-65
2023/03/17 08:22:30;;;;;;;;;28.00;22.00;23.80;35.10;;;;;;109663;1261;50762;-64
2023/03/17 08:24:57;;;;;;;;;;;23.80;35.00;;;;;;109612;1258;46823;-64
2023/03/17 08:27:23;;;;;;;;;24.00;20.00;23.90;35.00;;;;;;109627;1255;57617;-64
2023/03/17 08:29:50;;;;;;;;;28.00;21.00;24.00;35.00;;;;;;109774;1257;54484;-64
2023/03/17 08:32:16;;;;;;;;;31.00;22.00;24.00;35.70;;;;;;109709;1257;49791;-64
2023/03/17 08:34:45;;;;;;;;;23.00;18.00;24.10;36.70;;;;;;109858;1257;49482;-63
2023/03/17 08:37:11;;;;;;;;;15.00;13.00;24.10;38.30;;;;;;109924;1255;47475;-62
2023/03/17 08:39:37;;;;;;;;;17.00;16.00;24.20;38.50;;;;;;109783;1257;57776;-64
2023/03/17 08:42:04;;;;;;;;;21.50;18.00;24.20;38.40;;;;;;109615;1257;53578;-65
2023/03/17 08:44:31;;;;;;;;;16.50;15.00;24.20;38.20;;;;;;109951;1260;49796;-65
2023/03/17 08:46:57;;;;;;;;;22.50;17.00;24.30;38.70;;;;;;109855;1260;49256;-66
2023/03/17 08:49:23;;;;;;;;;21.00;19.50;24.40;38.10;;;;;;109611;1260;46760;-63
2023/03/17 08:51:50;;;;;;;;;18.00;17.00;24.40;38.20;;;;;;109709;1255;57011;-68
2023/03/17 08:54:16;;;;;;;;;20.33;18.00;24.40;38.10;;;;;;109599;1259;54765;-62
2023/03/17 08:56:43;;;;;;;;;20.00;16.00;24.50;38.00;;;;;;109583;1255;49855;-64
2023/03/17 08:59:09;;;;;;;;;20.00;15.00;24.60;38.20;;;;;;109620;1260;49177;-66
2023/03/17 09:01:36;;;;;;;;;17.00;16.00;24.60;37.80;;;;;;109729;1257;46510;-66
2023/03/17 09:04:03;;;;;;;;;17.00;15.50;24.60;37.80;;;;;;109552;1256;56791;-64
2023/03/17 09:06:30;;;;;;;;;17.50;16.50;24.70;37.80;;;;;;109609;1260;54920;-63
2023/03/17 09:08:56;;;;;;;;;17.00;13.00;24.80;37.80;;;;;;109710;1260;49434;-64
2023/03/17 09:11:27;;;;;;;;;16.00;13.50;24.80;37.70;;;;;;109825;1257;48915;-66
2023/03/17 09:13:54;;;;;;;;;19.00;14.00;24.80;37.70;;;;;;109715;1257;46468;-67
2023/03/17 09:16:25;;;;;;;;;18.00;15.00;24.90;37.60;;;;;;109814;1254;56957;-65
2023/03/17 09:18:52;;;;;;;;;16.00;15.00;24.90;37.40;;;;;;109908;1255;53750;-64
2023/03/17 09:21:18;;;;;;;;;21.00;17.00;25.00;37.50;;;;;;109697;1259;49778;-66
2023/03/17 09:23:45;;;;;;;;;18.33;16.67;25.10;37.50;;;;;;109744;1254;49275;-64
2023/03/17 09:26:12;;;;;;;;;22.00;18.00;25.10;37.60;;;;;;109765;1259;46676;-64
2023/03/17 09:28:38;;;;;;;;;16.50;14.00;25.20;37.80;;;;;;109723;1259;56586;-62
2023/03/17 09:31:10;;;;;;;;;16.50;13.00;25.20;37.60;;;;;;109645;1258;53793;-63
2023/03/17 09:33:38;;;;;;;;;18.00;15.50;25.30;37.00;;;;;;109671;1255;49498;-66
2023/03/17 09:36:05;;;;;;;;;17.00;14.50;25.30;37.30;;;;;;109802;1256;49401;-66
2023/03/17 09:38:32;;;;;;;;;19.33;18.00;25.40;37.30;;;;;;109898;1255;46068;-67
2023/03/17 09:41:28;;;;;;;;;16.00;15.00;25.40;37.30;;;;;;109712;1255;56297;-64
2023/03/17 09:44:22;;;;;;;;;16.50;14.00;25.30;37.30;;;;;;109743;1260;54623;-64
2023/03/17 09:47:20;;;;;;;;;13.50;11.50;25.30;37.20;;;;;;109729;1260;49981;-64
2023/03/17 09:49:50;;;;;;;;;15.00;14.00;25.30;37.20;;;;;;109527;1257;48973;-64
2023/03/17 09:52:21;;;;;;;;;26.00;19.00;25.30;37.50;;;;;;109831;1257;46072;-63
2023/03/17 09:54:48;;;;;;;;;23.00;15.00;25.30;37.40;;;;;;109761;1255;56504;-65
2023/03/17 09:57:39;;;;;;;;;19.00;15.00;25.30;37.30;;;;;;109777;1255;54166;-65
2023/03/17 10:00:13;;;;;;;;;17.00;14.00;25.30;37.30;;;;;;109820;1255;50042;-67
2023/03/17 10:02:40;;;;;;;;;17.00;15.50;25.30;37.10;;;;;;109829;1255;49371;-64
2023/03/17 10:05:16;;;;;;;;;12.00;10.50;25.30;37.20;;;;;;109969;1255;47256;-63
2023/03/17 10:08:01;;;;;;;;;13.00;12.00;25.40;37.20;;;;;;109716;1259;56270;-63
2023/03/17 10:10:36;;;;;;;;;15.67;13.67;25.40;37.10;;;;;;109553;1260;53945;-63
2023/03/17 10:13:15;;;;;;;;;15.00;14.00;25.40;36.90;;;;;;109691;1257;49543;-64
2023/03/17 10:15:50;;;;;;;;;16.50;11.00;25.40;37.00;;;;;;110024;1260;50460;-69
2023/03/17 10:18:17;;;;;;;;;18.00;13.00;25.30;37.10;;;;;;110076;1254;46101;-75
2023/03/17 10:20:49;;;;;;;;;17.50;15.50;25.30;37.10;;;;;;109824;1258;56004;-64
2023/03/17 10:23:20;;;;;;;;;15.50;13.00;25.30;37.10;;;;;;110171;1258;54789;-65
2023/03/17 10:25:47;;;;;;;;;19.00;14.00;25.40;37.20;;;;;;109962;1254;49213;-66
2023/03/17 10:28:29;;;;;;;;;15.00;12.00;25.50;37.00;;;;;;109996;1255;49947;-68
2023/03/17 10:31:15;;;;;;;;;18.00;14.00;25.50;36.60;;;;;;110117;1260;47141;-66
2023/03/17 10:33:43;;;;;;;;;12.50;11.50;25.50;36.50;;;;;;109852;1257;56854;-62
2023/03/17 10:36:13;;;;;;;;;15.00;12.00;25.50;36.50;;;;;;109914;1259;54149;-62
2023/03/17 10:38:39;;;;;;;;;14.00;10.00;25.60;36.90;;;;;;109941;1255;48881;-69
2023/03/17 10:41:12;;;;;;;;;15.00;14.00;25.50;36.20;;;;;;110200;1257;48869;-70
2023/03/17 10:43:43;;;;;;;;;13.00;12.00;25.40;34.70;;;;;;109699;1260;46642;-67
2023/03/17 10:46:23;;;;;;;;;15.50;11.50;25.40;34.40;;;;;;109733;1261;56663;-65
2023/03/17 10:48:55;;;;;;;;;15.00;10.50;25.30;35.10;;;;;;109787;1259;53421;-69
2023/03/17 10:51:34;;;;;;;;;15.00;12.00;25.30;36.20;;;;;;110258;1257;49797;-67
2023/03/17 10:54:06;;;;;;;;;13.00;12.00;25.20;36.10;;;;;;110064;1255;49950;-73
2023/03/17 10:56:35;;;;;;;;;12.00;11.00;25.20;36.20;;;;;;109848;1259;46130;-70
2023/03/17 10:59:27;;;;;;;;;17.00;14.00;25.30;36.20;;;;;;109912;1256;56224;-70
2023/03/17 11:01:57;;;;;;;;;12.50;10.50;25.30;36.40;;;;;;110278;1259;54380;-73
2023/03/17 11:04:36;;;;;;;;;13.50;10.50;25.30;36.00;;;;;;110045;1255;50199;-71
2023/03/17 11:07:15;;;;;;;;;13.00;11.00;25.40;36.00;;;;;;109913;1261;49035;-68
2023/03/17 11:09:41;;;;;;;;;14.00;13.00;25.40;36.00;;;;;;110028;1255;46508;-67
2023/03/17 11:12:24;;;;;;;;;10.00;9.00;25.40;34.50;;;;;;110097;1257;56832;-67
2023/03/17 11:14:58;;;;;;;;;13.00;12.00;25.40;34.50;;;;;;109893;1260;53768;-68
2023/03/17 11:17:56;;;;;;;;;12.00;11.00;25.30;34.60;;;;;;109711;1258;48929;-68
2023/03/17 11:20:30;;;;;;;;;14.00;13.00;25.30;34.60;;;;;;109827;1255;49938;-68
2023/03/17 11:23:02;;;;;;;;;11.00;10.00;25.20;34.60;;;;;;110190;1259;46853;-66
2023/03/17 11:25:30;;;;;;;;;13.00;12.00;25.20;34.80;;;;;;109843;1255;57299;-65
2023/03/17 11:28:20;;;;;;;;;11.00;10.00;25.20;34.80;;;;;;109796;1259;53766;-66
2023/03/17 11:31:11;;;;;;;;;;;25.20;34.80;;;;;;109761;1255;49138;-67
2023/03/17 11:33:58;;;;;;;;;13.00;11.00;25.10;35.00;;;;;;109716;1260;48382;-65
2023/03/17 11:36:53;;;;;;;;;15.00;12.50;25.10;35.10;;;;;;109920;1260;47462;-65
2023/03/17 11:39:25;;;;;;;;;12.00;11.00;25.10;35.10;;;;;;109907;1255;56056;-66
2023/03/17 11:42:10;;;;;;;;;12.67;10.00;25.10;35.00;;;;;;109852;1258;54591;-66
2023/03/17 11:44:39;;;;;;;;;12.00;11.00;25.00;35.10;;;;;;109877;1255;49183;-65
2023/03/17 11:47:50;;;;;;;;;16.00;15.00;25.00;35.00;;;;;;109860;1259;49232;-66
2023/03/17 11:50:34;;;;;;;;;12.00;11.00;25.00;35.30;;;;;;109172;1262;47519;-66
2023/03/17 11:53:23;;;;;;;;;13.00;10.00;25.00;35.20;;;;;;110143;1257;56596;-66
2023/03/17 11:56:12;;;;;;;;;15.00;11.00;25.00;35.30;;;;;;109798;1261;54257;-66
2023/03/17 11:58:42;;;;;;;;;12.50;11.50;25.00;35.10;;;;;;109807;1255;49534;-66
2023/03/17 12:01:13;;;;;;;;;15.00;12.50;25.00;35.20;;;;;;110062;1259;49288;-67
2023/03/17 12:03:54;;;;;;;;;12.00;11.00;25.00;35.20;;;;;;109788;1260;46904;-65
2023/03/17 12:06:27;;;;;;;;;15.00;12.00;24.90;35.10;;;;;;109739;1255;57479;-66
2023/03/17 12:09:02;;;;;;;;;11.50;10.50;24.90;35.10;;;;;;110029;1255;53461;-65
2023/03/17 12:11:31;;;;;;;;;14.00;12.00;24.90;35.40;;;;;;110209;1260;49658;-65
2023/03/17 12:14:02;;;;;;;;;11.00;10.00;24.90;35.20;;;;;;110025;1256;49843;-66
2023/03/17 12:16:40;;;;;;;;;13.00;10.00;24.90;35.20;;;;;;109709;1257;46820;-64
2023/03/17 12:19:15;;;;;;;;;14.00;11.00;24.90;35.20;;;;;;109680;1258;57144;-64
2023/03/17 12:21:53;;;;;;;;;14.00;11.50;24.90;35.20;;;;;;110103;1256;54076;-64
2023/03/17 12:24:23;;;;;;;;;14.00;10.00;24.90;35.30;;;;;;109715;1261;49470;-64
2023/03/17 12:26:53;;;;;;;;;14.00;10.00;24.90;35.30;;;;;;109893;1255;49009;-66
2023/03/17 12:29:51;;;;;;;;;10.00;9.00;24.90;35.30;;;;;;109802;1255;47329;-67